首页
METAR-TAF:

METAR-TAF

机场 :

阿伯丁机场

阿伯丁, 苏格兰

纬度: 57-12N, 经度: 002-13W, 海拔: 65米

当前天气观测

该预报发布于20分钟前的14:20 UTC
风速21节,风向西,有时为34节阵风
温度 7°C
湿度 61%
气压 1004 hPa
能见度10公里或以上
少量云层高于3800英尺

METAR: EGPD 231420Z AUTO 28021G34KT 9999 FEW038 07/M00 Q1004 NOSIG

时间: 14:40 (14:40 UTC)

预报

该预报发布于3小时和41分钟前的10:59 UTC
预报有效从23日的 12点(UTC)到 24日的 12点(UTC)
风速15节,风向西,有时为25节阵风
能见度10公里或以上
少量云层高于3000英尺
几率 40% :
短暂存在
从 23日的 12点(UTC)到 23日的 19点(UTC)
风速22节,风向西,有时为35节阵风
成为
从 23日的 18点(UTC)到 23日的 21点(UTC)
风速7节,风向西转西北
成为
从 24日的 08点(UTC)到 24日的 11点(UTC)
风速14节,风向
短暂存在
从 24日的 09点(UTC)到 24日的 12点(UTC)
风速17节,风向,有时为27节阵风
能見度: 6000
多云层高于1000英尺
几率 40% :
短暂存在
从 24日的 10点(UTC)到 24日的 12点(UTC)
能見度: 3000
多云层高于500英尺
雨, 毛毛雨, 小雨, 雪

TAF: EGPD 231059Z 2312/2412 26015G25KT 9999 FEW030 PROB40 TEMPO 2312/2319 28022G35KT BECMG 2318/2321 30007KT BECMG 2408/2411 09014KT TEMPO 2409/2412 09017G27KT 6000 RA BKN010 PROB40 TEMPO 2410/2412 3000 RADZ -RASN BKN005

超过4000个机场的气象观测和天气预报(METAR&TAF报告)。

可查询的气象台以黄色和红色小点在地图上表示。

将鼠标移到小点上方,可查看气象台名称。

然后点击查看天气观测和预报。

如需切换地图:点击带黑十字的绿色按钮放大地图;点击带横线的绿色按钮缩小地图;或者点击绿色箭头查看邻近地区的地图。


METAR-TAF: